Nibulon 1 — UUAS4 — position and weather

sailwx.info

Track history (hours):
 
Tides and Currents Weather Stations Pressure Air Temp Water Temp Dewpoint Dewpoint Depression Visibility Wind Speed Wind Dir Waves Ship Positions

Nibulon 1

Last reported at 2015-Jun-30 09:18 UTC. Time now 2015-Jul-04 20:48 UTC.
Position N 48°02' E 035°08'.

Length 38 m; draft 2.6 m.

Type: Tug. MMSI: 272641000.

Date/timePositionNaut miles runAvg speedWind from/ knotsBaromVisibWave heightAir tempDewpointWater temp
2015-Jun-30 09:18N 48°02' E 035°08'4 5.2
2015-Jun-30 08:33N 47°58' E 035°07'5 5.1
2015-Jun-30 07:33N 47°53' E 035°06'1 1.0
2015-Jun-30 06:33N 47°52' E 035°05'2 1.7
2015-Jun-30 05:33N 47°50' E 035°06'1 0.7
2015-Jun-30 04:33N 47°50' E 035°07'3 2.7
2015-Jun-30 03:33N 47°52' E 035°06'1 0.7
2015-Jun-30 02:33N 47°52' E 035°05'4 3.7
2015-Jun-30 01:33N 47°49' E 035°09'0 0.4
2015-Jun-30 00:33N 47°49' E 035°09'0 0.0
2015-Jun-29 23:33N 47°49' E 035°09'0 0.0
2015-Jun-29 22:33N 47°49' E 035°09'0 0.0
2015-Jun-29 21:33N 47°49' E 035°09'0 0.0
2015-Jun-29 20:33N 47°49' E 035°09'0 0.0
2015-Jun-29 19:33N 47°49' E 035°09'0 0.0
2015-Jun-29 18:33N 47°49' E 035°09'0 0.0
2015-Jun-29 17:33N 47°49' E 035°09'0 0.3
2015-Jun-29 16:33N 47°48' E 035°09'5 4.8
2015-Jun-29 15:33N 47°44' E 035°10'4 4.5
2015-Jun-29 14:33N 47°39' E 035°07'5 5.0
2015-Jun-29 13:33N 47°35' E 035°03'11 5.1
2015-Jun-29 11:27N 47°31' E 034°48'122 4.1
2015-Jun-28 05:19N 46°32' E 032°11'3 4.0
2015-Jun-28 04:33N 46°32' E 032°07'6 5.6
2015-Jun-28 03:34N 46°33' E 031°59'3 2.8
2015-Jun-28 02:33N 46°34' E 031°55'0 0.0
2015-Jun-28 01:33N 46°34' E 031°55'0 0.0
2015-Jun-28 00:33N 46°34' E 031°55'0 0.0
2015-Jun-27 23:33N 46°34' E 031°55'0 0.0
2015-Jun-27 22:33N 46°34' E 031°55'0 0.0
2015-Jun-27 21:33N 46°34' E 031°55'0 0.0
2015-Jun-27 20:33N 46°34' E 031°55'0 0.0
2015-Jun-27 19:33N 46°34' E 031°55'0 0.0
2015-Jun-27 18:33N 46°34' E 031°55'0 0.0
2015-Jun-27 17:33N 46°34' E 031°55'0 0.0
2015-Jun-27 16:33N 46°34' E 031°55'0 0.0
2015-Jun-27 15:33N 46°34' E 031°55'0 0.0
2015-Jun-27 14:33N 46°34' E 031°55'1 1.5
2015-Jun-27 13:33N 46°34' E 031°53'5 5.3
2015-Jun-27 12:33N 46°35' E 031°46'5 4.9
2015-Jun-27 11:33N 46°35' E 031°38'2 2.4
2015-Jun-27 10:33N 46°36' E 031°35'3 1.0
2015-Jun-27 07:17N 46°37' E 031°30'4 4.6
2015-Jun-27 06:28N 46°35' E 031°26'5 0.2
2015-Jun-26 04:31N 46°35' E 031°33'2 0.5
2015-Jun-26 01:18N 46°37' E 031°34'0 0.0
2015-Jun-26 00:27N 46°37' E 031°34'1 0.1
2015-Jun-25 09:24N 46°36' E 031°34'0 0.0
2015-Jun-25 08:12N 46°36' E 031°34'0 0.0
2015-Jun-25 07:04N 46°36' E 031°34'0 0.0
2015-Jun-25 06:33N 46°36' E 031°34'0 0.0
2015-Jun-25 05:31N 46°36' E 031°34'0 0.0
2015-Jun-25 04:33N 46°36' E 031°34'1 0.4
2015-Jun-25 02:09N 46°37' E 031°34'0 0.0
2015-Jun-25 01:33N 46°37' E 031°34'0 0.0
2015-Jun-25 00:30N 46°37' E 031°34'0 0.0
2015-Jun-24 23:28N 46°37' E 031°34'0 0.0
2015-Jun-24 22:30N 46°37' E 031°34'3 1.2
2015-Jun-24 20:03N 46°35' E 031°37'2 4.2
2015-Jun-24 19:33N 46°35' E 031°40'4 4.2
2015-Jun-24 18:33N 46°36' E 031°46'4 4.1
2015-Jun-24 17:33N 46°35' E 031°52'4 4.0
2015-Jun-24 16:33N 46°33' E 031°58'4 3.9
2015-Jun-24 15:33N 46°32' E 032°03'128 2.8
2015-Jun-22 18:28N 47°31' E 034°49'8 4.0
2015-Jun-22 16:26N 47°34' E 035°00'3 3.8
2015-Jun-22 15:33N 47°37' E 035°03'4 4.4
2015-Jun-22 14:33N 47°40' E 035°07'4 4.2
2015-Jun-22 13:33N 47°44' E 035°10'4 3.9
2015-Jun-22 12:33N 47°48' E 035°10'1 0.8
2015-Jun-22 11:33N 47°49' E 035°09'4 4.0
2015-Jun-22 10:33N 47°52' E 035°05'1 1.1
2015-Jun-22 09:33N 47°53' E 035°06'1 1.2
2015-Jun-22 08:33N 47°52' E 035°05'3 2.8
2015-Jun-22 07:33N 47°49' E 035°08'3 2.8
2015-Jun-22 06:33N 47°52' E 035°05'1 1.1
2015-Jun-22 05:33N 47°53' E 035°06'0 0.0
2015-Jun-22 04:33N 47°53' E 035°06'1 1.0
2015-Jun-22 03:33N 47°54' E 035°06'4 4.4
2015-Jun-22 02:33N 47°58' E 035°07'  
Track history (hours):
 
Tides and Currents Weather Stations Pressure Air Temp Water Temp Dewpoint Dewpoint Depression Visibility Wind Speed Wind Dir Waves Ship Positions

Nibulon 1

Last reported at 2015-Jun-30 09:18 UTC. Time now 2015-Jul-04 20:48 UTC.
Position N 48°02' E 035°08'.

Length 38 m; draft 2.6 m.

Type: Tug. MMSI: 272641000.

Date/timePositionNaut miles runAvg speedWind from/ knotsBaromVisibWave heightAir tempDewpointWater temp
2015-Jun-30 09:18N 48°02' E 035°08'4 5.2
2015-Jun-30 08:33N 47°58' E 035°07'5 5.1
2015-Jun-30 07:33N 47°53' E 035°06'1 1.0
2015-Jun-30 06:33N 47°52' E 035°05'2 1.7
2015-Jun-30 05:33N 47°50' E 035°06'1 0.7
2015-Jun-30 04:33N 47°50' E 035°07'3 2.7
2015-Jun-30 03:33N 47°52' E 035°06'1 0.7
2015-Jun-30 02:33N 47°52' E 035°05'4 3.7
2015-Jun-30 01:33N 47°49' E 035°09'0 0.4
2015-Jun-30 00:33N 47°49' E 035°09'0 0.0
2015-Jun-29 23:33N 47°49' E 035°09'0 0.0
2015-Jun-29 22:33N 47°49' E 035°09'0 0.0
2015-Jun-29 21:33N 47°49' E 035°09'0 0.0
2015-Jun-29 20:33N 47°49' E 035°09'0 0.0
2015-Jun-29 19:33N 47°49' E 035°09'0 0.0
2015-Jun-29 18:33N 47°49' E 035°09'0 0.0
2015-Jun-29 17:33N 47°49' E 035°09'0 0.3
2015-Jun-29 16:33N 47°48' E 035°09'5 4.8
2015-Jun-29 15:33N 47°44' E 035°10'4 4.5
2015-Jun-29 14:33N 47°39' E 035°07'5 5.0
2015-Jun-29 13:33N 47°35' E 035°03'11 5.1
2015-Jun-29 11:27N 47°31' E 034°48'122 4.1
2015-Jun-28 05:19N 46°32' E 032°11'3 4.0
2015-Jun-28 04:33N 46°32' E 032°07'6 5.6
2015-Jun-28 03:34N 46°33' E 031°59'3 2.8
2015-Jun-28 02:33N 46°34' E 031°55'0 0.0
2015-Jun-28 01:33N 46°34' E 031°55'0 0.0
2015-Jun-28 00:33N 46°34' E 031°55'0 0.0
2015-Jun-27 23:33N 46°34' E 031°55'0 0.0
2015-Jun-27 22:33N 46°34' E 031°55'0 0.0
2015-Jun-27 21:33N 46°34' E 031°55'0 0.0
2015-Jun-27 20:33N 46°34' E 031°55'0 0.0
2015-Jun-27 19:33N 46°34' E 031°55'0 0.0
2015-Jun-27 18:33N 46°34' E 031°55'0 0.0
2015-Jun-27 17:33N 46°34' E 031°55'0 0.0
2015-Jun-27 16:33N 46°34' E 031°55'0 0.0
2015-Jun-27 15:33N 46°34' E 031°55'0 0.0
2015-Jun-27 14:33N 46°34' E 031°55'1 1.5
2015-Jun-27 13:33N 46°34' E 031°53'5 5.3
2015-Jun-27 12:33N 46°35' E 031°46'5 4.9
2015-Jun-27 11:33N 46°35' E 031°38'2 2.4
2015-Jun-27 10:33N 46°36' E 031°35'3 1.0
2015-Jun-27 07:17N 46°37' E 031°30'4 4.6
2015-Jun-27 06:28N 46°35' E 031°26'5 0.2
2015-Jun-26 04:31N 46°35' E 031°33'2 0.5
2015-Jun-26 01:18N 46°37' E 031°34'0 0.0
2015-Jun-26 00:27N 46°37' E 031°34'1 0.1
2015-Jun-25 09:24N 46°36' E 031°34'0 0.0
2015-Jun-25 08:12N 46°36' E 031°34'0 0.0
2015-Jun-25 07:04N 46°36' E 031°34'0 0.0
2015-Jun-25 06:33N 46°36' E 031°34'0 0.0
2015-Jun-25 05:31N 46°36' E 031°34'0 0.0
2015-Jun-25 04:33N 46°36' E 031°34'1 0.4
2015-Jun-25 02:09N 46°37' E 031°34'0 0.0
2015-Jun-25 01:33N 46°37' E 031°34'0 0.0
2015-Jun-25 00:30N 46°37' E 031°34'0 0.0
2015-Jun-24 23:28N 46°37' E 031°34'0 0.0
2015-Jun-24 22:30N 46°37' E 031°34'3 1.2
2015-Jun-24 20:03N 46°35' E 031°37'2 4.2
2015-Jun-24 19:33N 46°35' E 031°40'4 4.2
2015-Jun-24 18:33N 46°36' E 031°46'4 4.1
2015-Jun-24 17:33N 46°35' E 031°52'4 4.0
2015-Jun-24 16:33N 46°33' E 031°58'4 3.9
2015-Jun-24 15:33N 46°32' E 032°03'128 2.8
2015-Jun-22 18:28N 47°31' E 034°49'8 4.0
2015-Jun-22 16:26N 47°34' E 035°00'3 3.8
2015-Jun-22 15:33N 47°37' E 035°03'4 4.4
2015-Jun-22 14:33N 47°40' E 035°07'4 4.2
2015-Jun-22 13:33N 47°44' E 035°10'4 3.9
2015-Jun-22 12:33N 47°48' E 035°10'1 0.8
2015-Jun-22 11:33N 47°49' E 035°09'4 4.0
2015-Jun-22 10:33N 47°52' E 035°05'1 1.1
2015-Jun-22 09:33N 47°53' E 035°06'1 1.2
2015-Jun-22 08:33N 47°52' E 035°05'3 2.8
2015-Jun-22 07:33N 47°49' E 035°08'3 2.8
2015-Jun-22 06:33N 47°52' E 035°05'1 1.1
2015-Jun-22 05:33N 47°53' E 035°06'0 0.0
2015-Jun-22 04:33N 47°53' E 035°06'1 1.0
2015-Jun-22 03:33N 47°54' E 035°06'4 4.4
2015-Jun-22 02:33N 47°58' E 035°07'  

Dump ship's entire track history